sensor_id;sensor_type;location;lat;lon;timestamp;P1;durP1;ratioP1;P2;durP2;ratioP2
13061;SDS011;6597;52.218;9.882;2023-04-16T00:02:36;21.53;;;12.13;;
13061;SDS011;6597;52.218;9.882;2023-04-16T00:05:02;20.63;;;12.23;;
13061;SDS011;6597;52.218;9.882;2023-04-16T00:07:31;24.97;;;11.73;;
13061;SDS011;6597;52.218;9.882;2023-04-16T00:09:57;22.70;;;12.20;;
13061;SDS011;6597;52.218;9.882;2023-04-16T00:12:24;18.70;;;11.87;;
13061;SDS011;6597;52.218;9.882;2023-04-16T00:14:50;22.60;;;13.10;;
13061;SDS011;6597;52.218;9.882;2023-04-16T00:17:17;23.27;;;12.17;;
13061;SDS011;6597;52.218;9.882;2023-04-16T00:19:43;26.70;;;12.97;;
13061;SDS011;6597;52.218;9.882;2023-04-16T00:22:10;21.30;;;11.97;;
13061;SDS011;6597;52.218;9.882;2023-04-16T00:24:38;22.50;;;13.40;;
13061;SDS011;6597;52.218;9.882;2023-04-16T00:27:05;26.90;;;13.47;;
13061;SDS011;6597;52.218;9.882;2023-04-16T00:29:31;26.07;;;14.03;;
13061;SDS011;6597;52.218;9.882;2023-04-16T00:32:00;25.87;;;13.57;;
13061;SDS011;6597;52.218;9.882;2023-04-16T00:34:26;20.60;;;13.30;;
13061;SDS011;6597;52.218;9.882;2023-04-16T00:36:53;22.33;;;12.73;;
13061;SDS011;6597;52.218;9.882;2023-04-16T00:39:19;21.33;;;12.73;;
13061;SDS011;6597;52.218;9.882;2023-04-16T00:41:47;25.80;;;13.33;;
13061;SDS011;6597;52.218;9.882;2023-04-16T00:44:14;21.47;;;13.30;;
13061;SDS011;6597;52.218;9.882;2023-04-16T00:46:40;25.77;;;13.20;;
13061;SDS011;6597;52.218;9.882;2023-04-16T00:49:07;28.20;;;12.37;;
13061;SDS011;6597;52.218;9.882;2023-04-16T00:51:35;27.63;;;13.67;;
13061;SDS011;6597;52.218;9.882;2023-04-16T00:54:02;22.20;;;13.60;;
13061;SDS011;6597;52.218;9.882;2023-04-16T00:56:28;23.53;;;12.77;;
13061;SDS011;6597;52.218;9.882;2023-04-16T00:58:57;19.77;;;12.70;;
13061;SDS011;6597;52.218;9.882;2023-04-16T01:01:24;19.73;;;12.93;;
13061;SDS011;6597;52.218;9.882;2023-04-16T01:03:50;25.70;;;14.03;;
13061;SDS011;6597;52.218;9.882;2023-04-16T01:06:17;26.80;;;14.17;;
13061;SDS011;6597;52.218;9.882;2023-04-16T01:08:44;31.00;;;14.10;;
13061;SDS011;6597;52.218;9.882;2023-04-16T01:11:12;23.20;;;12.90;;
13061;SDS011;6597;52.218;9.882;2023-04-16T01:13:39;23.13;;;13.90;;
13061;SDS011;6597;52.218;9.882;2023-04-16T01:16:08;23.43;;;14.27;;
13061;SDS011;6597;52.218;9.882;2023-04-16T01:18:36;22.37;;;13.97;;
13061;SDS011;6597;52.218;9.882;2023-04-16T01:21:05;25.50;;;13.90;;
13061;SDS011;6597;52.218;9.882;2023-04-16T01:23:32;24.93;;;14.70;;
13061;SDS011;6597;52.218;9.882;2023-04-16T01:25:58;30.23;;;14.90;;
13061;SDS011;6597;52.218;9.882;2023-04-16T01:28:25;33.33;;;15.70;;
13061;SDS011;6597;52.218;9.882;2023-04-16T01:30:52;27.63;;;15.00;;
13061;SDS011;6597;52.218;9.882;2023-04-16T01:33:28;29.53;;;14.53;;
13061;SDS011;6597;52.218;9.882;2023-04-16T01:35:55;23.17;;;13.47;;
13061;SDS011;6597;52.218;9.882;2023-04-16T01:38:23;24.13;;;14.23;;
13061;SDS011;6597;52.218;9.882;2023-04-16T01:40:54;21.63;;;13.67;;
13061;SDS011;6597;52.218;9.882;2023-04-16T01:43:21;30.20;;;13.67;;
13061;SDS011;6597;52.218;9.882;2023-04-16T01:45:47;27.13;;;14.27;;
13061;SDS011;6597;52.218;9.882;2023-04-16T01:48:14;22.57;;;13.50;;
13061;SDS011;6597;52.218;9.882;2023-04-16T01:50:40;24.23;;;14.23;;
13061;SDS011;6597;52.218;9.882;2023-04-16T01:53:07;28.07;;;14.30;;
13061;SDS011;6597;52.218;9.882;2023-04-16T01:55:35;26.43;;;14.97;;
13061;SDS011;6597;52.218;9.882;2023-04-16T01:58:02;24.27;;;14.43;;
13061;SDS011;6597;52.218;9.882;2023-04-16T02:00:32;25.03;;;13.70;;
13061;SDS011;6597;52.218;9.882;2023-04-16T02:02:58;30.30;;;14.93;;
13061;SDS011;6597;52.218;9.882;2023-04-16T02:05:26;27.83;;;13.50;;
13061;SDS011;6597;52.218;9.882;2023-04-16T02:07:53;27.03;;;14.17;;
13061;SDS011;6597;52.218;9.882;2023-04-16T02:10:20;24.13;;;14.27;;
13061;SDS011;6597;52.218;9.882;2023-04-16T02:12:48;27.67;;;15.57;;
13061;SDS011;6597;52.218;9.882;2023-04-16T02:15:15;33.70;;;15.97;;
13061;SDS011;6597;52.218;9.882;2023-04-16T02:17:42;30.43;;;14.57;;
13061;SDS011;6597;52.218;9.882;2023-04-16T02:20:11;22.10;;;13.93;;
13061;SDS011;6597;52.218;9.882;2023-04-16T02:22:46;21.73;;;13.77;;
13061;SDS011;6597;52.218;9.882;2023-04-16T02:25:15;28.90;;;14.70;;
13061;SDS011;6597;52.218;9.882;2023-04-16T02:27:42;23.80;;;13.80;;
13061;SDS011;6597;52.218;9.882;2023-04-16T02:30:31;23.73;;;14.07;;
13061;SDS011;6597;52.218;9.882;2023-04-16T02:32:59;26.70;;;14.63;;
13061;SDS011;6597;52.218;9.882;2023-04-16T02:35:27;33.03;;;14.77;;
13061;SDS011;6597;52.218;9.882;2023-04-16T02:37:54;24.13;;;13.27;;
13061;SDS011;6597;52.218;9.882;2023-04-16T02:40:20;23.67;;;13.93;;
13061;SDS011;6597;52.218;9.882;2023-04-16T02:42:47;28.27;;;15.80;;
13061;SDS011;6597;52.218;9.882;2023-04-16T02:45:14;24.67;;;15.00;;
13061;SDS011;6597;52.218;9.882;2023-04-16T02:47:41;25.63;;;15.33;;
13061;SDS011;6597;52.218;9.882;2023-04-16T02:50:08;35.30;;;16.53;;
13061;SDS011;6597;52.218;9.882;2023-04-16T02:52:35;28.43;;;16.40;;
13061;SDS011;6597;52.218;9.882;2023-04-16T02:55:02;30.03;;;15.73;;
13061;SDS011;6597;52.218;9.882;2023-04-16T02:57:29;33.37;;;15.33;;
13061;SDS011;6597;52.218;9.882;2023-04-16T02:59:55;28.20;;;14.77;;
13061;SDS011;6597;52.218;9.882;2023-04-16T03:02:22;31.73;;;15.23;;
13061;SDS011;6597;52.218;9.882;2023-04-16T03:04:50;34.77;;;15.43;;
13061;SDS011;6597;52.218;9.882;2023-04-16T03:07:16;28.33;;;16.17;;
13061;SDS011;6597;52.218;9.882;2023-04-16T03:09:43;27.53;;;15.37;;
13061;SDS011;6597;52.218;9.882;2023-04-16T03:12:10;35.40;;;16.03;;
13061;SDS011;6597;52.218;9.882;2023-04-16T03:14:37;28.67;;;15.63;;
13061;SDS011;6597;52.218;9.882;2023-04-16T03:17:03;27.17;;;15.13;;
13061;SDS011;6597;52.218;9.882;2023-04-16T03:19:30;27.57;;;15.33;;
13061;SDS011;6597;52.218;9.882;2023-04-16T03:21:58;29.00;;;15.27;;
13061;SDS011;6597;52.218;9.882;2023-04-16T03:24:24;27.40;;;15.07;;
13061;SDS011;6597;52.218;9.882;2023-04-16T03:26:52;31.20;;;14.97;;
13061;SDS011;6597;52.218;9.882;2023-04-16T03:29:21;26.73;;;14.87;;
13061;SDS011;6597;52.218;9.882;2023-04-16T03:31:47;31.90;;;15.27;;
13061;SDS011;6597;52.218;9.882;2023-04-16T03:34:14;31.40;;;15.13;;
13061;SDS011;6597;52.218;9.882;2023-04-16T03:36:41;30.57;;;15.03;;
13061;SDS011;6597;52.218;9.882;2023-04-16T03:39:09;25.93;;;14.30;;
13061;SDS011;6597;52.218;9.882;2023-04-16T03:41:35;30.87;;;15.93;;
13061;SDS011;6597;52.218;9.882;2023-04-16T03:44:02;28.03;;;15.17;;
13061;SDS011;6597;52.218;9.882;2023-04-16T03:46:28;27.10;;;15.30;;
13061;SDS011;6597;52.218;9.882;2023-04-16T03:48:55;29.77;;;14.20;;
13061;SDS011;6597;52.218;9.882;2023-04-16T03:51:22;33.30;;;15.53;;
13061;SDS011;6597;52.218;9.882;2023-04-16T03:53:49;24.47;;;14.67;;
13061;SDS011;6597;52.218;9.882;2023-04-16T03:56:18;33.73;;;16.27;;
13061;SDS011;6597;52.218;9.882;2023-04-16T03:58:45;28.90;;;14.90;;
13061;SDS011;6597;52.218;9.882;2023-04-16T04:01:11;26.70;;;14.67;;
13061;SDS011;6597;52.218;9.882;2023-04-16T04:03:38;30.63;;;16.30;;
13061;SDS011;6597;52.218;9.882;2023-04-16T04:06:05;24.67;;;14.70;;
13061;SDS011;6597;52.218;9.882;2023-04-16T04:08:32;35.17;;;14.60;;
13061;SDS011;6597;52.218;9.882;2023-04-16T04:10:58;25.70;;;13.17;;
13061;SDS011;6597;52.218;9.882;2023-04-16T04:13:27;30.87;;;14.77;;
13061;SDS011;6597;52.218;9.882;2023-04-16T04:15:55;28.00;;;15.50;;
13061;SDS011;6597;52.218;9.882;2023-04-16T04:18:22;26.80;;;14.10;;
13061;SDS011;6597;52.218;9.882;2023-04-16T04:20:48;29.97;;;15.13;;
13061;SDS011;6597;52.218;9.882;2023-04-16T04:23:18;28.03;;;14.03;;
13061;SDS011;6597;52.218;9.882;2023-04-16T04:25:45;35.30;;;15.20;;
13061;SDS011;6597;52.218;9.882;2023-04-16T04:28:12;31.30;;;16.00;;
13061;SDS011;6597;52.218;9.882;2023-04-16T04:30:40;26.63;;;14.60;;
13061;SDS011;6597;52.218;9.882;2023-04-16T04:33:06;25.30;;;14.30;;
13061;SDS011;6597;52.218;9.882;2023-04-16T04:35:33;30.47;;;15.90;;
13061;SDS011;6597;52.218;9.882;2023-04-16T04:38:00;29.30;;;14.47;;
13061;SDS011;6597;52.218;9.882;2023-04-16T04:40:29;26.77;;;14.67;;
13061;SDS011;6597;52.218;9.882;2023-04-16T04:42:55;32.10;;;16.07;;
13061;SDS011;6597;52.218;9.882;2023-04-16T04:45:22;33.43;;;15.33;;
13061;SDS011;6597;52.218;9.882;2023-04-16T04:47:53;31.27;;;15.57;;
13061;SDS011;6597;52.218;9.882;2023-04-16T04:50:19;35.87;;;14.47;;
13061;SDS011;6597;52.218;9.882;2023-04-16T04:52:46;30.27;;;16.63;;
13061;SDS011;6597;52.218;9.882;2023-04-16T04:55:13;33.13;;;15.93;;
13061;SDS011;6597;52.218;9.882;2023-04-16T04:57:40;30.47;;;15.80;;
13061;SDS011;6597;52.218;9.882;2023-04-16T05:00:08;33.80;;;16.17;;
13061;SDS011;6597;52.218;9.882;2023-04-16T05:02:45;30.80;;;15.40;;
13061;SDS011;6597;52.218;9.882;2023-04-16T05:05:13;33.73;;;15.57;;
13061;SDS011;6597;52.218;9.882;2023-04-16T05:07:39;27.87;;;15.00;;
13061;SDS011;6597;52.218;9.882;2023-04-16T05:10:06;26.37;;;14.13;;
13061;SDS011;6597;52.218;9.882;2023-04-16T05:12:34;29.43;;;14.57;;
13061;SDS011;6597;52.218;9.882;2023-04-16T05:15:00;30.50;;;15.20;;
13061;SDS011;6597;52.218;9.882;2023-04-16T05:17:27;28.10;;;14.60;;
13061;SDS011;6597;52.218;9.882;2023-04-16T05:19:53;32.73;;;14.70;;
13061;SDS011;6597;52.218;9.882;2023-04-16T05:22:21;29.13;;;15.47;;
13061;SDS011;6597;52.218;9.882;2023-04-16T05:24:48;27.10;;;14.63;;
13061;SDS011;6597;52.218;9.882;2023-04-16T05:27:14;29.70;;;15.37;;
13061;SDS011;6597;52.218;9.882;2023-04-16T05:29:40;28.40;;;14.57;;
13061;SDS011;6597;52.218;9.882;2023-04-16T05:32:07;23.27;;;13.67;;
13061;SDS011;6597;52.218;9.882;2023-04-16T05:34:34;33.73;;;14.77;;
13061;SDS011;6597;52.218;9.882;2023-04-16T05:37:00;30.10;;;15.67;;
13061;SDS011;6597;52.218;9.882;2023-04-16T05:39:28;28.53;;;13.73;;
13061;SDS011;6597;52.218;9.882;2023-04-16T05:41:55;28.27;;;13.80;;
13061;SDS011;6597;52.218;9.882;2023-04-16T05:44:21;31.00;;;14.20;;
13061;SDS011;6597;52.218;9.882;2023-04-16T05:46:48;27.50;;;15.60;;
13061;SDS011;6597;52.218;9.882;2023-04-16T05:49:15;28.20;;;14.83;;
13061;SDS011;6597;52.218;9.882;2023-04-16T05:51:42;24.80;;;14.07;;
13061;SDS011;6597;52.218;9.882;2023-04-16T05:54:09;25.40;;;14.37;;
13061;SDS011;6597;52.218;9.882;2023-04-16T05:56:37;25.00;;;13.50;;
13061;SDS011;6597;52.218;9.882;2023-04-16T05:59:03;27.63;;;14.97;;
13061;SDS011;6597;52.218;9.882;2023-04-16T06:01:30;29.50;;;14.80;;
13061;SDS011;6597;52.218;9.882;2023-04-16T06:03:57;25.17;;;13.73;;
13061;SDS011;6597;52.218;9.882;2023-04-16T06:06:23;26.93;;;13.67;;
13061;SDS011;6597;52.218;9.882;2023-04-16T06:08:51;36.23;;;14.47;;
13061;SDS011;6597;52.218;9.882;2023-04-16T06:11:18;27.47;;;13.77;;
13061;SDS011;6597;52.218;9.882;2023-04-16T06:13:46;24.67;;;13.73;;
13061;SDS011;6597;52.218;9.882;2023-04-16T06:16:12;23.83;;;12.63;;
13061;SDS011;6597;52.218;9.882;2023-04-16T06:18:39;28.43;;;13.57;;
13061;SDS011;6597;52.218;9.882;2023-04-16T06:21:06;25.83;;;12.47;;
13061;SDS011;6597;52.218;9.882;2023-04-16T06:23:32;25.70;;;13.63;;
13061;SDS011;6597;52.218;9.882;2023-04-16T06:25:59;25.23;;;14.50;;
13061;SDS011;6597;52.218;9.882;2023-04-16T06:28:25;25.40;;;13.47;;
13061;SDS011;6597;52.218;9.882;2023-04-16T06:30:53;33.20;;;14.87;;
13061;SDS011;6597;52.218;9.882;2023-04-16T06:33:20;21.87;;;12.37;;
13061;SDS011;6597;52.218;9.882;2023-04-16T06:35:46;26.40;;;12.97;;
13061;SDS011;6597;52.218;9.882;2023-04-16T06:38:13;25.00;;;12.93;;
13061;SDS011;6597;52.218;9.882;2023-04-16T06:40:40;32.53;;;13.67;;
13061;SDS011;6597;52.218;9.882;2023-04-16T06:43:06;26.77;;;14.30;;
13061;SDS011;6597;52.218;9.882;2023-04-16T06:45:33;26.03;;;12.27;;
13061;SDS011;6597;52.218;9.882;2023-04-16T06:48:01;25.67;;;12.67;;
13061;SDS011;6597;52.218;9.882;2023-04-16T06:50:29;29.43;;;12.27;;
13061;SDS011;6597;52.218;9.882;2023-04-16T06:52:55;25.50;;;12.63;;
13061;SDS011;6597;52.218;9.882;2023-04-16T06:55:22;26.10;;;12.77;;
13061;SDS011;6597;52.218;9.882;2023-04-16T06:57:48;23.53;;;13.13;;
13061;SDS011;6597;52.218;9.882;2023-04-16T07:00:15;21.33;;;12.13;;
13061;SDS011;6597;52.218;9.882;2023-04-16T07:02:42;21.33;;;12.37;;
13061;SDS011;6597;52.218;9.882;2023-04-16T07:05:10;24.63;;;13.17;;
13061;SDS011;6597;52.218;9.882;2023-04-16T07:07:36;17.67;;;10.70;;
13061;SDS011;6597;52.218;9.882;2023-04-16T07:10:03;21.03;;;11.67;;
13061;SDS011;6597;52.218;9.882;2023-04-16T07:12:31;24.53;;;12.60;;
13061;SDS011;6597;52.218;9.882;2023-04-16T07:14:57;22.93;;;11.03;;
13061;SDS011;6597;52.218;9.882;2023-04-16T07:17:24;21.57;;;11.67;;
13061;SDS011;6597;52.218;9.882;2023-04-16T07:19:51;17.47;;;11.33;;
13061;SDS011;6597;52.218;9.882;2023-04-16T07:22:20;18.27;;;10.60;;
13061;SDS011;6597;52.218;9.882;2023-04-16T07:24:46;30.17;;;13.27;;
13061;SDS011;6597;52.218;9.882;2023-04-16T07:27:13;25.43;;;11.77;;
13061;SDS011;6597;52.218;9.882;2023-04-16T07:29:39;23.57;;;11.30;;
13061;SDS011;6597;52.218;9.882;2023-04-16T07:32:06;17.03;;;10.37;;
13061;SDS011;6597;52.218;9.882;2023-04-16T07:34:34;21.87;;;10.63;;
13061;SDS011;6597;52.218;9.882;2023-04-16T07:37:00;28.00;;;11.57;;
13061;SDS011;6597;52.218;9.882;2023-04-16T07:39:28;21.50;;;10.60;;
13061;SDS011;6597;52.218;9.882;2023-04-16T07:41:55;21.73;;;10.90;;
13061;SDS011;6597;52.218;9.882;2023-04-16T07:44:21;18.90;;;11.53;;
13061;SDS011;6597;52.218;9.882;2023-04-16T07:46:48;24.17;;;12.53;;
13061;SDS011;6597;52.218;9.882;2023-04-16T07:49:14;23.57;;;10.50;;
13061;SDS011;6597;52.218;9.882;2023-04-16T07:51:41;18.00;;;10.20;;
13061;SDS011;6597;52.218;9.882;2023-04-16T07:54:07;21.63;;;10.17;;
13061;SDS011;6597;52.218;9.882;2023-04-16T07:56:36;19.23;;;10.27;;
13061;SDS011;6597;52.218;9.882;2023-04-16T07:59:02;18.00;;;10.50;;
13061;SDS011;6597;52.218;9.882;2023-04-16T08:01:29;21.53;;;11.17;;
13061;SDS011;6597;52.218;9.882;2023-04-16T08:03:56;20.50;;;10.83;;
13061;SDS011;6597;52.218;9.882;2023-04-16T08:06:22;17.23;;;9.83;;
13061;SDS011;6597;52.218;9.882;2023-04-16T08:08:50;19.87;;;10.60;;
13061;SDS011;6597;52.218;9.882;2023-04-16T08:11:17;17.07;;;9.20;;
13061;SDS011;6597;52.218;9.882;2023-04-16T08:13:45;17.93;;;9.80;;
13061;SDS011;6597;52.218;9.882;2023-04-16T08:16:11;18.37;;;10.67;;
13061;SDS011;6597;52.218;9.882;2023-04-16T08:18:38;19.77;;;11.00;;
13061;SDS011;6597;52.218;9.882;2023-04-16T08:21:04;18.03;;;9.43;;
13061;SDS011;6597;52.218;9.882;2023-04-16T08:23:31;18.07;;;10.57;;
13061;SDS011;6597;52.218;9.882;2023-04-16T08:25:58;16.80;;;9.83;;
13061;SDS011;6597;52.218;9.882;2023-04-16T08:28:26;15.70;;;9.60;;
13061;SDS011;6597;52.218;9.882;2023-04-16T08:30:53;17.73;;;9.40;;
13061;SDS011;6597;52.218;9.882;2023-04-16T08:33:20;17.10;;;9.63;;
13061;SDS011;6597;52.218;9.882;2023-04-16T08:35:47;20.93;;;10.53;;
13061;SDS011;6597;52.218;9.882;2023-04-16T08:38:13;18.67;;;10.80;;
13061;SDS011;6597;52.218;9.882;2023-04-16T08:40:40;19.67;;;9.70;;
13061;SDS011;6597;52.218;9.882;2023-04-16T08:43:08;18.40;;;10.37;;
13061;SDS011;6597;52.218;9.882;2023-04-16T08:45:36;15.83;;;9.50;;
13061;SDS011;6597;52.218;9.882;2023-04-16T08:48:05;25.33;;;11.40;;
13061;SDS011;6597;52.218;9.882;2023-04-16T08:50:31;18.57;;;10.23;;
13061;SDS011;6597;52.218;9.882;2023-04-16T08:53:02;22.57;;;10.03;;
13061;SDS011;6597;52.218;9.882;2023-04-16T08:55:30;16.80;;;10.20;;
13061;SDS011;6597;52.218;9.882;2023-04-16T08:58:02;17.40;;;9.43;;
13061;SDS011;6597;52.218;9.882;2023-04-16T09:00:33;23.10;;;10.33;;
13061;SDS011;6597;52.218;9.882;2023-04-16T09:03:02;20.80;;;10.17;;
13061;SDS011;6597;52.218;9.882;2023-04-16T09:05:31;19.23;;;11.07;;
13061;SDS011;6597;52.218;9.882;2023-04-16T09:07:58;18.37;;;9.97;;
13061;SDS011;6597;52.218;9.882;2023-04-16T09:10:25;22.33;;;10.57;;
13061;SDS011;6597;52.218;9.882;2023-04-16T09:12:53;19.83;;;9.80;;
13061;SDS011;6597;52.218;9.882;2023-04-16T09:15:20;15.97;;;9.43;;
13061;SDS011;6597;52.218;9.882;2023-04-16T09:17:47;17.53;;;10.23;;
13061;SDS011;6597;52.218;9.882;2023-04-16T09:20:14;16.27;;;9.70;;
13061;SDS011;6597;52.218;9.882;2023-04-16T09:22:42;17.87;;;9.43;;
13061;SDS011;6597;52.218;9.882;2023-04-16T09:25:09;17.90;;;9.40;;
13061;SDS011;6597;52.218;9.882;2023-04-16T09:27:35;20.10;;;9.87;;
13061;SDS011;6597;52.218;9.882;2023-04-16T09:30:03;17.03;;;9.27;;
13061;SDS011;6597;52.218;9.882;2023-04-16T09:32:45;17.73;;;9.40;;
13061;SDS011;6597;52.218;9.882;2023-04-16T09:35:12;18.97;;;9.73;;
13061;SDS011;6597;52.218;9.882;2023-04-16T09:37:40;20.47;;;10.60;;
13061;SDS011;6597;52.218;9.882;2023-04-16T09:40:08;20.53;;;10.90;;
13061;SDS011;6597;52.218;9.882;2023-04-16T09:42:35;16.13;;;9.83;;
13061;SDS011;6597;52.218;9.882;2023-04-16T09:45:02;19.27;;;9.50;;
13061;SDS011;6597;52.218;9.882;2023-04-16T09:47:37;16.77;;;9.93;;
13061;SDS011;6597;52.218;9.882;2023-04-16T09:50:05;16.87;;;9.47;;
13061;SDS011;6597;52.218;9.882;2023-04-16T09:52:34;19.30;;;10.33;;
13061;SDS011;6597;52.218;9.882;2023-04-16T09:55:04;18.13;;;9.60;;
13061;SDS011;6597;52.218;9.882;2023-04-16T09:57:31;21.77;;;9.80;;
13061;SDS011;6597;52.218;9.882;2023-04-16T10:00:00;17.87;;;10.17;;
13061;SDS011;6597;52.218;9.882;2023-04-16T10:02:30;19.23;;;10.03;;
13061;SDS011;6597;52.218;9.882;2023-04-16T10:04:59;21.30;;;10.70;;
13061;SDS011;6597;52.218;9.882;2023-04-16T10:07:27;18.87;;;9.50;;
13061;SDS011;6597;52.218;9.882;2023-04-16T10:09:55;17.97;;;10.37;;
13061;SDS011;6597;52.218;9.882;2023-04-16T10:12:25;19.07;;;10.53;;
13061;SDS011;6597;52.218;9.882;2023-04-16T10:14:53;16.00;;;8.77;;
13061;SDS011;6597;52.218;9.882;2023-04-16T10:17:19;18.17;;;9.67;;
13061;SDS011;6597;52.218;9.882;2023-04-16T10:19:47;18.87;;;10.03;;
13061;SDS011;6597;52.218;9.882;2023-04-16T10:22:15;15.87;;;9.67;;
13061;SDS011;6597;52.218;9.882;2023-04-16T10:24:42;15.47;;;9.43;;
13061;SDS011;6597;52.218;9.882;2023-04-16T10:27:10;26.03;;;10.63;;
13061;SDS011;6597;52.218;9.882;2023-04-16T10:29:38;20.13;;;10.50;;
13061;SDS011;6597;52.218;9.882;2023-04-16T10:32:05;21.73;;;11.10;;
13061;SDS011;6597;52.218;9.882;2023-04-16T10:34:34;25.17;;;11.30;;
13061;SDS011;6597;52.218;9.882;2023-04-16T10:37:01;21.23;;;10.87;;
13061;SDS011;6597;52.218;9.882;2023-04-16T10:39:27;19.67;;;10.23;;
13061;SDS011;6597;52.218;9.882;2023-04-16T10:42:05;19.07;;;10.37;;
13061;SDS011;6597;52.218;9.882;2023-04-16T10:44:33;18.33;;;9.97;;
13061;SDS011;6597;52.218;9.882;2023-04-16T10:47:01;20.27;;;10.80;;
13061;SDS011;6597;52.218;9.882;2023-04-16T10:49:28;25.23;;;11.27;;
13061;SDS011;6597;52.218;9.882;2023-04-16T10:51:55;20.17;;;9.93;;
13061;SDS011;6597;52.218;9.882;2023-04-16T10:54:23;19.27;;;11.57;;
13061;SDS011;6597;52.218;9.882;2023-04-16T10:56:51;18.83;;;11.20;;
13061;SDS011;6597;52.218;9.882;2023-04-16T10:59:19;21.10;;;12.20;;
13061;SDS011;6597;52.218;9.882;2023-04-16T11:01:48;21.40;;;11.37;;
13061;SDS011;6597;52.218;9.882;2023-04-16T11:04:27;21.30;;;11.80;;
13061;SDS011;6597;52.218;9.882;2023-04-16T11:06:59;18.87;;;11.00;;
13061;SDS011;6597;52.218;9.882;2023-04-16T11:12:17;18.37;;;10.83;;
13061;SDS011;6597;52.218;9.882;2023-04-16T11:14:46;19.60;;;10.77;;
13061;SDS011;6597;52.218;9.882;2023-04-16T11:17:14;16.93;;;10.33;;
13061;SDS011;6597;52.218;9.882;2023-04-16T11:19:42;18.73;;;12.17;;
13061;SDS011;6597;52.218;9.882;2023-04-16T11:22:11;23.43;;;12.27;;
13061;SDS011;6597;52.218;9.882;2023-04-16T11:24:38;20.67;;;11.93;;
13061;SDS011;6597;52.218;9.882;2023-04-16T11:27:05;19.67;;;11.63;;
13061;SDS011;6597;52.218;9.882;2023-04-16T11:29:37;25.80;;;12.87;;
13061;SDS011;6597;52.218;9.882;2023-04-16T11:32:03;26.97;;;12.90;;
13061;SDS011;6597;52.218;9.882;2023-04-16T11:34:30;18.10;;;11.80;;
13061;SDS011;6597;52.218;9.882;2023-04-16T11:36:58;21.37;;;11.97;;
13061;SDS011;6597;52.218;9.882;2023-04-16T11:39:25;21.17;;;12.53;;
13061;SDS011;6597;52.218;9.882;2023-04-16T11:41:52;20.63;;;12.80;;
13061;SDS011;6597;52.218;9.882;2023-04-16T11:44:20;20.27;;;12.57;;
13061;SDS011;6597;52.218;9.882;2023-04-16T11:46:48;20.50;;;13.03;;
13061;SDS011;6597;52.218;9.882;2023-04-16T11:49:15;20.17;;;12.27;;
13061;SDS011;6597;52.218;9.882;2023-04-16T11:51:42;21.53;;;11.87;;
13061;SDS011;6597;52.218;9.882;2023-04-16T11:54:18;24.60;;;13.13;;
13061;SDS011;6597;52.218;9.882;2023-04-16T11:56:45;21.37;;;12.70;;
13061;SDS011;6597;52.218;9.882;2023-04-16T11:59:13;20.87;;;12.70;;
13061;SDS011;6597;52.218;9.882;2023-04-16T12:01:41;23.33;;;13.43;;
13061;SDS011;6597;52.218;9.882;2023-04-16T12:04:12;27.67;;;13.20;;
13061;SDS011;6597;52.218;9.882;2023-04-16T12:06:39;21.03;;;12.17;;
13061;SDS011;6597;52.218;9.882;2023-04-16T12:09:22;21.37;;;12.90;;
13061;SDS011;6597;52.218;9.882;2023-04-16T12:11:50;22.50;;;13.70;;
13061;SDS011;6597;52.218;9.882;2023-04-16T12:14:16;27.87;;;14.53;;
13061;SDS011;6597;52.218;9.882;2023-04-16T12:16:43;25.27;;;14.47;;
13061;SDS011;6597;52.218;9.882;2023-04-16T12:19:10;26.23;;;15.53;;
13061;SDS011;6597;52.218;9.882;2023-04-16T12:21:38;27.70;;;14.50;;
13061;SDS011;6597;52.218;9.882;2023-04-16T12:24:05;23.77;;;14.50;;
13061;SDS011;6597;52.218;9.882;2023-04-16T12:26:38;25.43;;;14.83;;
13061;SDS011;6597;52.218;9.882;2023-04-16T12:29:13;23.63;;;13.47;;
13061;SDS011;6597;52.218;9.882;2023-04-16T12:31:43;24.53;;;14.53;;
13061;SDS011;6597;52.218;9.882;2023-04-16T12:34:10;22.77;;;14.27;;
13061;SDS011;6597;52.218;9.882;2023-04-16T12:36:39;26.23;;;14.40;;
13061;SDS011;6597;52.218;9.882;2023-04-16T12:39:06;26.43;;;14.40;;
13061;SDS011;6597;52.218;9.882;2023-04-16T12:41:35;24.50;;;14.30;;
13061;SDS011;6597;52.218;9.882;2023-04-16T12:44:04;27.43;;;15.67;;
13061;SDS011;6597;52.218;9.882;2023-04-16T12:46:33;29.30;;;15.07;;
13061;SDS011;6597;52.218;9.882;2023-04-16T12:49:00;25.37;;;15.67;;
13061;SDS011;6597;52.218;9.882;2023-04-16T12:51:27;24.63;;;14.40;;
13061;SDS011;6597;52.218;9.882;2023-04-16T12:53:54;23.90;;;14.80;;
13061;SDS011;6597;52.218;9.882;2023-04-16T12:56:20;29.00;;;15.20;;
13061;SDS011;6597;52.218;9.882;2023-04-16T12:58:47;29.03;;;14.83;;
13061;SDS011;6597;52.218;9.882;2023-04-16T13:01:17;26.37;;;15.17;;
13061;SDS011;6597;52.218;9.882;2023-04-16T13:03:43;26.17;;;15.50;;
13061;SDS011;6597;52.218;9.882;2023-04-16T13:06:10;27.87;;;15.80;;
13061;SDS011;6597;52.218;9.882;2023-04-16T13:08:37;30.20;;;15.37;;
13061;SDS011;6597;52.218;9.882;2023-04-16T13:11:04;26.80;;;15.30;;
13061;SDS011;6597;52.218;9.882;2023-04-16T13:13:30;27.97;;;15.87;;
13061;SDS011;6597;52.218;9.882;2023-04-16T13:15:57;31.27;;;16.37;;
13061;SDS011;6597;52.218;9.882;2023-04-16T13:18:25;24.30;;;14.60;;
13061;SDS011;6597;52.218;9.882;2023-04-16T13:20:52;30.80;;;16.10;;
13061;SDS011;6597;52.218;9.882;2023-04-16T13:23:19;29.47;;;16.10;;
13061;SDS011;6597;52.218;9.882;2023-04-16T13:25:45;27.63;;;15.97;;
13061;SDS011;6597;52.218;9.882;2023-04-16T13:28:12;28.97;;;17.47;;
13061;SDS011;6597;52.218;9.882;2023-04-16T13:30:38;33.77;;;16.93;;
13061;SDS011;6597;52.218;9.882;2023-04-16T13:33:06;26.47;;;15.37;;
13061;SDS011;6597;52.218;9.882;2023-04-16T13:35:34;30.53;;;16.97;;
13061;SDS011;6597;52.218;9.882;2023-04-16T13:38:00;28.77;;;16.90;;
13061;SDS011;6597;52.218;9.882;2023-04-16T13:40:27;28.83;;;16.70;;
13061;SDS011;6597;52.218;9.882;2023-04-16T13:42:54;27.27;;;16.03;;
13061;SDS011;6597;52.218;9.882;2023-04-16T13:45:20;27.83;;;17.30;;
13061;SDS011;6597;52.218;9.882;2023-04-16T13:47:47;27.93;;;16.33;;
13061;SDS011;6597;52.218;9.882;2023-04-16T13:50:13;30.73;;;16.30;;
13061;SDS011;6597;52.218;9.882;2023-04-16T13:52:42;27.77;;;16.60;;
13061;SDS011;6597;52.218;9.882;2023-04-16T13:55:08;24.20;;;14.63;;
13061;SDS011;6597;52.218;9.882;2023-04-16T13:57:37;27.33;;;15.07;;
13061;SDS011;6597;52.218;9.882;2023-04-16T14:00:05;27.27;;;15.53;;
13061;SDS011;6597;52.218;9.882;2023-04-16T14:02:33;23.67;;;14.50;;
13061;SDS011;6597;52.218;9.882;2023-04-16T14:05:00;25.17;;;14.23;;
13061;SDS011;6597;52.218;9.882;2023-04-16T14:07:27;24.30;;;14.70;;
13061;SDS011;6597;52.218;9.882;2023-04-16T14:09:55;26.90;;;14.97;;
13061;SDS011;6597;52.218;9.882;2023-04-16T14:12:21;25.33;;;15.50;;
13061;SDS011;6597;52.218;9.882;2023-04-16T14:14:48;27.57;;;14.50;;
13061;SDS011;6597;52.218;9.882;2023-04-16T14:17:14;23.67;;;14.80;;
13061;SDS011;6597;52.218;9.882;2023-04-16T14:19:41;21.43;;;13.90;;
13061;SDS011;6597;52.218;9.882;2023-04-16T14:22:07;27.07;;;14.10;;
13061;SDS011;6597;52.218;9.882;2023-04-16T14:24:34;23.03;;;14.07;;
13061;SDS011;6597;52.218;9.882;2023-04-16T14:27:02;24.07;;;14.27;;
13061;SDS011;6597;52.218;9.882;2023-04-16T14:29:29;21.13;;;13.27;;
13061;SDS011;6597;52.218;9.882;2023-04-16T14:31:55;27.77;;;13.73;;
13061;SDS011;6597;52.218;9.882;2023-04-16T14:34:22;24.57;;;14.23;;
13061;SDS011;6597;52.218;9.882;2023-04-16T14:36:49;24.70;;;14.13;;
13061;SDS011;6597;52.218;9.882;2023-04-16T14:39:16;25.53;;;12.87;;
13061;SDS011;6597;52.218;9.882;2023-04-16T14:41:42;22.40;;;12.60;;